createdAt,value
2022-10-19T00:01:20.190Z,98578.09
2022-10-19T00:03:23.289Z,98564.25
2022-10-19T00:05:25.548Z,98564.94
2022-10-19T00:07:27.740Z,98558.00
2022-10-19T00:09:29.960Z,98563.13
2022-10-19T00:11:33.668Z,98562.22
2022-10-19T00:13:36.057Z,98555.28
2022-10-19T00:15:39.426Z,98561.34
2022-10-19T00:17:43.385Z,98557.91
2022-10-19T00:19:47.950Z,98541.34
2022-10-19T00:23:53.036Z,98500.09
2022-10-19T00:25:56.135Z,98538.00
2022-10-19T00:27:58.231Z,98530.25
2022-10-19T00:30:00.529Z,98519.03
2022-10-19T00:32:03.187Z,98539.72
2022-10-19T00:34:05.874Z,98520.63
2022-10-19T00:36:16.122Z,98526.63
2022-10-19T00:38:20.425Z,98518.88
2022-10-19T00:40:22.693Z,98519.81
2022-10-19T00:42:24.918Z,98510.25
2022-10-19T00:44:30.774Z,98511.19
2022-10-19T00:46:38.352Z,98503.34
2022-10-19T00:48:40.499Z,98499.84
2022-10-19T00:50:44.382Z,98507.78
2022-10-19T00:52:46.751Z,98500.13
2022-10-19T00:54:50.810Z,98511.31
2022-10-19T00:56:56.731Z,98513.00
2022-10-19T00:58:59.340Z,98511.31
2022-10-19T01:01:04.589Z,98513.91
2022-10-19T01:03:08.728Z,98517.34
2022-10-19T01:05:12.017Z,98517.41
2022-10-19T01:07:14.852Z,98515.66
2022-10-19T01:09:18.039Z,98498.28
2022-10-19T01:11:38.774Z,98510.41
2022-10-19T01:13:56.076Z,98512.13
2022-10-19T01:16:24.362Z,98495.69
2022-10-19T01:18:40.899Z,98500.78
2022-10-19T01:20:59.263Z,98499.84
2022-10-19T01:23:44.774Z,98497.16
2022-10-19T01:26:26.705Z,98510.25
2022-10-19T01:29:06.050Z,98524.94
2022-10-19T01:31:27.076Z,98495.59
2022-10-19T01:36:11.702Z,98490.97
2022-10-19T01:38:30.614Z,98471.97
2022-10-19T01:40:50.971Z,98476.25
2022-10-19T01:42:58.864Z,98475.50
2022-10-19T01:45:09.628Z,98458.31
2022-10-19T01:47:19.571Z,98456.72
2022-10-19T01:49:45.738Z,98457.63
2022-10-19T01:51:54.244Z,98435.28
2022-10-19T01:54:01.245Z,98436.19
2022-10-19T01:56:05.578Z,98442.22
2022-10-19T01:58:11.198Z,98424.97
2022-10-19T02:00:16.120Z,98417.00
2022-10-19T02:02:22.232Z,98422.13
2022-10-19T02:04:26.139Z,98431.75
2022-10-19T02:06:28.475Z,98424.81
2022-10-19T02:08:44.429Z,98439.47
2022-10-19T02:10:47.918Z,98424.72
2022-10-19T02:12:51.407Z,98428.09
2022-10-19T02:14:58.997Z,98417.59
2022-10-19T02:17:08.985Z,98405.47
2022-10-19T02:19:15.064Z,98416.56
2022-10-19T02:21:18.276Z,98422.50
2022-10-19T02:23:25.139Z,98416.47
2022-10-19T02:25:34.216Z,98413.94
2022-10-19T02:27:42.226Z,98418.28
2022-10-19T02:29:44.411Z,98412.25
2022-10-19T02:31:46.860Z,98407.81
2022-10-19T02:33:48.778Z,98406.00
2022-10-19T02:35:51.168Z,98402.72
2022-10-19T02:37:53.590Z,98410.38
2022-10-19T02:39:55.770Z,98402.47
2022-10-19T02:42:07.148Z,98396.34
2022-10-19T02:44:23.010Z,98391.13
2022-10-19T02:46:42.897Z,98370.44
2022-10-19T02:48:46.212Z,98397.13
2022-10-19T02:50:48.360Z,98393.56
2022-10-19T02:52:50.608Z,98371.31
2022-10-19T02:54:52.688Z,98380.03
2022-10-19T02:56:55.171Z,98384.56
2022-10-19T02:58:57.337Z,98378.47
2022-10-19T03:00:59.459Z,98374.91
2022-10-19T03:03:03.040Z,98381.69
2022-10-19T03:05:05.399Z,98373.88
2022-10-19T03:07:08.665Z,98379.16
2022-10-19T03:09:12.822Z,98374.00
2022-10-19T03:11:15.053Z,98376.59
2022-10-19T03:13:17.119Z,98357.63
2022-10-19T03:15:19.476Z,98350.69
2022-10-19T03:17:21.529Z,98353.38
2022-10-19T03:19:23.873Z,98358.72
2022-10-19T03:21:26.009Z,98340.66
2022-10-19T03:23:28.067Z,98308.75
2022-10-19T03:25:30.221Z,98335.47
2022-10-19T03:27:32.619Z,98345.94
2022-10-19T03:29:34.858Z,98339.19
2022-10-19T03:31:37.068Z,98323.63
2022-10-19T03:33:39.273Z,98322.81
2022-10-19T03:35:41.386Z,98328.03
2022-10-19T03:37:43.543Z,98319.56
2022-10-19T03:39:45.831Z,98338.59
2022-10-19T03:41:48.128Z,98342.91
2022-10-19T03:43:50.458Z,98280.09
2022-10-19T03:45:52.535Z,98326.31
2022-10-19T03:47:54.649Z,98330.56
2022-10-19T03:49:56.775Z,98309.84
2022-10-19T03:51:58.929Z,98311.34
2022-10-19T03:54:04.034Z,98322.56
2022-10-19T03:56:06.508Z,98319.19
2022-10-19T03:58:08.369Z,98327.16
2022-10-19T04:00:11.206Z,98310.81
2022-10-19T04:02:16.060Z,98314.25
2022-10-19T04:04:20.008Z,98306.44
2022-10-19T04:06:27.068Z,98314.13
2022-10-19T04:08:29.302Z,98302.06
2022-10-19T04:10:31.322Z,98309.78
2022-10-19T04:12:33.654Z,98302.06
2022-10-19T04:14:52.371Z,98300.22
2022-10-19T04:16:57.550Z,98283.00
2022-10-19T04:19:00.084Z,98286.50
2022-10-19T04:21:05.536Z,98274.38
2022-10-19T04:23:07.604Z,98289.84
2022-10-19T04:25:12.485Z,98282.06
2022-10-19T04:27:14.570Z,98278.56
2022-10-19T04:29:19.185Z,98284.53
2022-10-19T04:31:21.244Z,98282.78
2022-10-19T04:33:23.578Z,98269.78
2022-10-19T04:35:25.520Z,98283.47
2022-10-19T04:37:27.581Z,98292.09
2022-10-19T04:39:29.743Z,98273.09
2022-10-19T04:41:33.205Z,98289.50
2022-10-19T04:43:35.614Z,98272.03
2022-10-19T04:45:37.573Z,98273.69
2022-10-19T04:47:39.588Z,98265.97
2022-10-19T04:49:44.595Z,98263.44
2022-10-19T04:51:46.732Z,98279.81
2022-10-19T04:53:49.313Z,98271.94
2022-10-19T04:55:51.467Z,98257.22
2022-10-19T04:57:53.587Z,98241.69
2022-10-19T04:59:55.638Z,98266.72
2022-10-19T05:01:57.721Z,98260.75
2022-10-19T05:04:03.048Z,98261.53
2022-10-19T05:06:05.675Z,98249.56
2022-10-19T05:08:08.031Z,98258.84
2022-10-19T05:10:11.174Z,98265.78
2022-10-19T05:12:14.483Z,98250.19
2022-10-19T05:14:16.615Z,98260.41
2022-10-19T05:16:20.691Z,98244.81
2022-10-19T05:18:22.811Z,98249.13
2022-10-19T05:20:25.432Z,98249.16
2022-10-19T05:22:27.687Z,98251.72
2022-10-19T05:24:32.745Z,98251.75
2022-10-19T05:26:35.327Z,98244.75
2022-10-19T05:28:37.961Z,98254.06
2022-10-19T05:30:40.032Z,98251.31
2022-10-19T05:32:42.322Z,98247.06
2022-10-19T05:34:44.341Z,98249.50
2022-10-19T05:36:46.505Z,98249.47
2022-10-19T05:38:50.506Z,98250.41
2022-10-19T05:40:53.733Z,98256.53
2022-10-19T05:42:55.888Z,98242.72
2022-10-19T05:44:58.010Z,98228.03
2022-10-19T05:47:00.694Z,98248.72
2022-10-19T05:49:03.050Z,98239.16
2022-10-19T05:51:07.256Z,98225.16
2022-10-19T05:53:09.499Z,98229.47
2022-10-19T05:55:11.681Z,98229.66
2022-10-19T05:57:14.607Z,98226.31
2022-10-19T05:59:19.776Z,98222.06
2022-10-19T06:01:22.004Z,98237.59
2022-10-19T06:03:25.457Z,98239.31
2022-10-19T06:05:27.539Z,98238.44
2022-10-19T06:07:29.988Z,98241.03
2022-10-19T06:09:36.123Z,98233.13
2022-10-19T06:11:40.591Z,98233.19
2022-10-19T06:13:44.105Z,98206.63
2022-10-19T06:15:50.979Z,98232.47
2022-10-19T06:17:53.274Z,98224.00
2022-10-19T06:19:55.417Z,98210.50
2022-10-19T06:21:57.558Z,98212.09
2022-10-19T06:24:03.707Z,98218.03
2022-10-19T06:26:09.762Z,98209.63
2022-10-19T06:28:11.902Z,98222.69
2022-10-19T06:30:14.193Z,98224.41
2022-10-19T06:32:16.279Z,98232.47
2022-10-19T06:34:18.789Z,98222.81
2022-10-19T06:36:21.895Z,98233.13
2022-10-19T06:38:24.027Z,98232.31
2022-10-19T06:40:26.334Z,98218.78
2022-10-19T06:42:29.544Z,98237.09
2022-10-19T06:44:31.714Z,98233.47
2022-10-19T06:46:34.066Z,98234.34
2022-10-19T06:48:36.456Z,98223.34
2022-10-19T06:50:38.689Z,98220.03
2022-10-19T06:52:42.094Z,98235.63
2022-10-19T06:54:44.154Z,98234.91
2022-10-19T06:56:46.617Z,98213.28
2022-10-19T06:58:50.136Z,98222.69
2022-10-19T07:00:57.673Z,98217.34
2022-10-19T07:03:00.632Z,98207.81
2022-10-19T07:05:06.027Z,98205.22
2022-10-19T07:07:09.374Z,98186.50
2022-10-19T07:09:11.322Z,98221.13
2022-10-19T07:11:19.035Z,98213.34
2022-10-19T07:13:21.948Z,98198.63
2022-10-19T07:15:24.075Z,98200.31
2022-10-19T07:17:26.288Z,98150.59
2022-10-19T07:19:28.519Z,98208.88
2022-10-19T07:21:30.851Z,98200.28
2022-10-19T07:23:33.687Z,98211.88
2022-10-19T07:25:37.237Z,98181.75
2022-10-19T07:27:40.542Z,98203.13
2022-10-19T07:29:43.143Z,98197.13
2022-10-19T07:31:45.170Z,98201.34
2022-10-19T07:33:52.154Z,98200.53
2022-10-19T07:35:59.837Z,98178.91
2022-10-19T07:38:02.495Z,98199.66
2022-10-19T07:40:05.001Z,98191.97
2022-10-19T07:42:07.120Z,98194.44
2022-10-19T07:44:10.967Z,98201.31
2022-10-19T07:46:18.758Z,98201.34
2022-10-19T07:48:20.772Z,98195.28
2022-10-19T07:50:27.471Z,98186.69
2022-10-19T07:52:31.834Z,98183.31
2022-10-19T07:54:36.611Z,98184.00
2022-10-19T07:56:38.825Z,98202.78
2022-10-19T07:58:41.931Z,98206.19
2022-10-19T08:00:44.200Z,98201.88
2022-10-19T08:03:00.197Z,98203.81
2022-10-19T08:05:11.579Z,98200.16
2022-10-19T08:07:14.205Z,98208.66
2022-10-19T08:09:39.989Z,98204.47
2022-10-19T08:11:39.461Z,98204.22
2022-10-19T08:13:42.704Z,98193.00
2022-10-19T08:15:44.959Z,98193.72
2022-10-19T08:17:46.969Z,98200.41
2022-10-19T08:19:49.299Z,98178.84
2022-10-19T08:21:52.657Z,98197.59
2022-10-19T08:23:55.126Z,98167.56
2022-10-19T08:26:00.338Z,98199.91
2022-10-19T08:28:13.948Z,98186.84
2022-10-19T08:30:20.857Z,98183.72
2022-10-19T08:32:23.231Z,98197.78
2022-10-19T08:34:27.045Z,98203.59
2022-10-19T08:36:31.548Z,98195.75
2022-10-19T08:38:35.869Z,98200.91
2022-10-19T08:40:38.023Z,98198.03
2022-10-19T08:42:57.288Z,98185.41
2022-10-19T08:45:06.686Z,98171.53
2022-10-19T08:47:23.543Z,98186.72
2022-10-19T08:49:32.135Z,98173.72
2022-10-19T08:51:38.983Z,98184.31
2022-10-19T08:53:41.648Z,98191.97
2022-10-19T08:56:22.114Z,98193.63
2022-10-19T08:59:06.784Z,98168.28
2022-10-19T09:01:35.393Z,98184.41
2022-10-19T09:03:56.076Z,98186.63
2022-10-19T09:06:32.127Z,98182.13
2022-10-19T09:11:06.213Z,98177.66
2022-10-19T09:14:05.054Z,98200.06
2022-10-19T09:16:21.818Z,98189.97
2022-10-19T09:18:30.333Z,98208.72
2022-10-19T09:20:38.822Z,98188.16
2022-10-19T09:22:42.813Z,98194.91
2022-10-19T09:24:51.972Z,98194.91
2022-10-19T09:26:57.607Z,98200.75
2022-10-19T09:29:14.486Z,98202.41
2022-10-19T09:31:29.089Z,98194.91
2022-10-19T09:33:40.003Z,98201.81
2022-10-19T09:35:45.884Z,98200.47
2022-10-19T09:37:50.087Z,98187.84
2022-10-19T09:39:55.370Z,98187.09
2022-10-19T09:42:05.012Z,98193.34
2022-10-19T09:44:07.261Z,98204.25
2022-10-19T09:46:29.322Z,98203.50
2022-10-19T09:48:39.681Z,98207.59
2022-10-19T09:50:44.972Z,98207.66
2022-10-19T09:52:49.830Z,98209.50
2022-10-19T09:55:07.455Z,98188.16
2022-10-19T09:57:21.388Z,98201.41
2022-10-19T09:59:28.466Z,98201.31
2022-10-19T10:01:41.666Z,98204.03
2022-10-19T10:03:53.807Z,98183.31
2022-10-19T10:06:02.475Z,98202.09
2022-10-19T10:08:15.170Z,98186.69
2022-10-19T10:10:49.482Z,98205.66
2022-10-19T10:12:53.380Z,98205.84
2022-10-19T10:14:56.676Z,98204.09
2022-10-19T10:17:04.495Z,98203.28
2022-10-19T10:19:11.916Z,98204.09
2022-10-19T10:21:25.525Z,98205.72
2022-10-19T10:23:36.837Z,98196.28
2022-10-19T10:25:48.961Z,98188.50
2022-10-19T10:27:56.879Z,98201.53
2022-10-19T10:29:59.742Z,98177.41
2022-10-19T10:32:05.264Z,98214.78
2022-10-19T10:34:28.704Z,98202.91
2022-10-19T10:36:40.224Z,98200.19
2022-10-19T10:38:50.283Z,98204.44
2022-10-19T10:40:56.825Z,98208.00
2022-10-19T10:43:17.145Z,98216.59
2022-10-19T10:46:01.154Z,98220.13
2022-10-19T10:48:15.729Z,98212.41
2022-10-19T10:50:30.680Z,98206.38
2022-10-19T10:52:35.024Z,98220.28
2022-10-19T10:54:38.123Z,98189.19
2022-10-19T10:56:43.606Z,98199.47
2022-10-19T10:58:54.573Z,98190.78
2022-10-19T11:01:06.593Z,98206.66
2022-10-19T11:03:17.661Z,98212.59
2022-10-19T11:05:31.739Z,98211.88
2022-10-19T11:07:36.355Z,98202.41
2022-10-19T11:09:49.583Z,98214.53
2022-10-19T11:11:56.275Z,98184.47
2022-10-19T11:14:17.473Z,98205.88
2022-10-19T11:16:25.141Z,98209.28
2022-10-19T11:18:35.197Z,98211.88
2022-10-19T11:20:43.611Z,98215.22
2022-10-19T11:23:08.084Z,98203.94
2022-10-19T11:25:33.816Z,98196.00
2022-10-19T11:27:51.273Z,98204.47
2022-10-19T11:30:23.060Z,98199.28
2022-10-19T11:32:57.128Z,98201.03
2022-10-19T11:35:20.995Z,98187.47
2022-10-19T11:37:31.691Z,98195.84
2022-10-19T11:39:42.213Z,98194.78
2022-10-19T11:41:55.959Z,98193.50
2022-10-19T11:44:43.840Z,98186.03
2022-10-19T11:47:13.950Z,98179.72
2022-10-19T11:49:19.770Z,98175.72
2022-10-19T11:51:53.737Z,98168.88
2022-10-19T11:54:33.355Z,98177.25
2022-10-19T11:57:02.246Z,98188.34
2022-10-19T11:59:31.941Z,98178.00
2022-10-19T12:02:10.907Z,98193.50
2022-10-19T12:04:51.338Z,98195.97
2022-10-19T12:07:10.023Z,98184.75
2022-10-19T12:09:42.565Z,98201.13
2022-10-19T12:11:47.940Z,98200.34
2022-10-19T12:13:58.660Z,98201.34
2022-10-19T12:19:48.261Z,98177.63
2022-10-19T12:22:20.064Z,98180.00
2022-10-19T12:24:48.540Z,98204.31
2022-10-19T12:26:53.921Z,98200.75
2022-10-19T12:29:00.637Z,98206.22
2022-10-19T12:31:04.672Z,98207.22
2022-10-19T12:33:29.164Z,98210.69
2022-10-19T12:36:02.154Z,98215.13
2022-10-19T12:38:13.274Z,98204.94
2022-10-19T12:40:54.460Z,98210.84
2022-10-19T12:43:15.377Z,98204.88
2022-10-19T12:45:52.461Z,98216.03
2022-10-19T12:48:13.099Z,98210.66
2022-10-19T12:50:15.402Z,98205.47
2022-10-19T12:52:35.937Z,98178.91
2022-10-19T12:54:40.869Z,98215.94
2022-10-19T12:56:50.132Z,98209.47
2022-10-19T12:58:55.024Z,98218.16
2022-10-19T13:01:02.676Z,98211.19
2022-10-19T13:03:14.459Z,98213.75
2022-10-19T13:05:25.223Z,98218.09
2022-10-19T13:07:35.170Z,98201.75
2022-10-19T13:09:43.343Z,98223.25
2022-10-19T13:12:21.506Z,98222.28
2022-10-19T13:14:54.212Z,98230.91
2022-10-19T13:17:04.032Z,98213.72
2022-10-19T13:19:12.274Z,98228.31
2022-10-19T13:21:59.767Z,98228.25
2022-10-19T13:24:26.044Z,98232.50
2022-10-19T13:26:34.069Z,98229.88
2022-10-19T13:28:37.610Z,98232.47
2022-10-19T13:30:39.802Z,98237.84
2022-10-19T13:32:45.640Z,98237.03
2022-10-19T13:34:48.246Z,98233.53
2022-10-19T13:37:00.907Z,98243.91
2022-10-19T13:39:07.845Z,98233.78
2022-10-19T13:41:25.781Z,98242.38
2022-10-19T13:43:39.664Z,98244.22
2022-10-19T13:45:44.669Z,98244.25
2022-10-19T13:47:55.390Z,98241.50
2022-10-19T13:50:23.795Z,98237.25
2022-10-19T13:52:47.414Z,98234.81
2022-10-19T13:55:07.680Z,98234.97
2022-10-19T13:57:47.804Z,98237.63
2022-10-19T14:00:11.143Z,98240.31
2022-10-19T14:02:37.650Z,98238.66
2022-10-19T14:05:03.207Z,98240.38
2022-10-19T14:07:20.438Z,98238.69
2022-10-19T14:09:43.660Z,98240.44
2022-10-19T14:11:48.727Z,98244.66
2022-10-19T14:14:09.023Z,98249.81
2022-10-19T14:16:29.270Z,98235.09
2022-10-19T14:18:34.777Z,98235.00
2022-10-19T14:20:38.853Z,98246.22
2022-10-19T14:22:40.927Z,98246.22
2022-10-19T14:24:43.225Z,98252.34
2022-10-19T14:26:46.355Z,98255.75
2022-10-19T14:28:54.096Z,98250.53
2022-10-19T14:30:56.123Z,98259.31
2022-10-19T14:33:02.243Z,98249.00
2022-10-19T14:35:18.064Z,98258.50
2022-10-19T14:37:23.625Z,98255.03
2022-10-19T14:39:35.359Z,98267.06
2022-10-19T14:41:37.729Z,98264.53
2022-10-19T14:43:40.121Z,98266.41
2022-10-19T14:45:42.196Z,98267.38
2022-10-19T14:47:56.099Z,98263.13
2022-10-19T14:49:58.232Z,98255.34
2022-10-19T14:52:04.115Z,98269.16
2022-10-19T14:54:29.329Z,98265.66
2022-10-19T14:56:43.740Z,98270.06
2022-10-19T14:58:51.937Z,98270.94
2022-10-19T15:00:55.221Z,98274.41
2022-10-19T15:02:59.190Z,98275.38
2022-10-19T15:05:03.084Z,98289.34
2022-10-19T15:07:20.686Z,98268.69
2022-10-19T15:09:47.999Z,98282.47
2022-10-19T15:11:51.233Z,98285.16
2022-10-19T15:14:22.523Z,98279.16
2022-10-19T15:16:43.290Z,98279.25
2022-10-19T15:18:49.664Z,98290.53
2022-10-19T15:21:21.782Z,98288.81
2022-10-19T15:23:32.835Z,98291.59
2022-10-19T15:25:39.441Z,98298.53
2022-10-19T15:27:47.228Z,98289.91
2022-10-19T15:30:05.787Z,98289.91
2022-10-19T15:32:25.760Z,98289.13
2022-10-19T15:34:30.017Z,98302.25
2022-10-19T15:36:33.063Z,98303.06
2022-10-19T15:38:35.835Z,98303.84
2022-10-19T15:40:43.071Z,98308.13
2022-10-19T15:42:49.060Z,98310.63
2022-10-19T15:44:52.028Z,98317.59
2022-10-19T15:47:32.013Z,98314.06
2022-10-19T15:49:44.382Z,98326.31
2022-10-19T15:54:11.728Z,98333.31
2022-10-19T15:56:17.276Z,98316.75
2022-10-19T15:58:21.445Z,98322.78
2022-10-19T16:00:23.796Z,98322.81
2022-10-19T16:02:26.459Z,98318.47
2022-10-19T16:04:29.098Z,98319.28
2022-10-19T16:06:34.453Z,98330.53
2022-10-19T16:08:36.822Z,98318.38
2022-10-19T16:10:38.896Z,98326.19
2022-10-19T16:12:46.886Z,98317.50
2022-10-19T16:14:49.133Z,98321.78
2022-10-19T16:16:52.414Z,98319.91
2022-10-19T16:18:55.705Z,98322.47
2022-10-19T16:20:58.427Z,98323.31
2022-10-19T16:23:00.553Z,98326.75
2022-10-19T16:25:03.529Z,98320.56
2022-10-19T16:27:06.563Z,98319.66
2022-10-19T16:29:13.167Z,98325.66
2022-10-19T16:31:15.906Z,98326.44
2022-10-19T16:33:20.712Z,98323.78
2022-10-19T16:35:24.085Z,98325.41
2022-10-19T16:37:26.229Z,98330.50
2022-10-19T16:39:35.484Z,98321.91
2022-10-19T16:43:40.726Z,98341.72
2022-10-19T16:45:43.658Z,98344.81
2022-10-19T16:47:50.178Z,98353.66
2022-10-19T16:50:00.548Z,98358.19
2022-10-19T16:52:06.879Z,98351.28
2022-10-19T16:54:23.045Z,98331.75
2022-10-19T16:56:27.608Z,98356.72
2022-10-19T16:58:29.691Z,98357.72
2022-10-19T17:00:32.323Z,98354.28
2022-10-19T17:02:35.207Z,98357.91
2022-10-19T17:04:37.460Z,98357.03
2022-10-19T17:06:40.767Z,98359.53
2022-10-19T17:11:23.170Z,98355.47
2022-10-19T17:13:26.690Z,98360.78
2022-10-19T17:15:42.384Z,98360.72
2022-10-19T17:17:45.077Z,98356.31
2022-10-19T17:19:48.336Z,98362.44
2022-10-19T17:21:50.743Z,98361.69
2022-10-19T17:24:00.740Z,98362.44
2022-10-19T17:26:14.622Z,98364.09
2022-10-19T17:28:22.956Z,98368.69
2022-10-19T17:30:29.151Z,98353.19
2022-10-19T17:32:31.360Z,98366.09
2022-10-19T17:34:33.420Z,98366.09
2022-10-19T17:36:41.616Z,98373.03
2022-10-19T17:38:45.116Z,98386.97
2022-10-19T17:40:52.493Z,98370.53
2022-10-19T17:43:03.497Z,98355.16
2022-10-19T17:45:06.593Z,98376.66
2022-10-19T17:47:08.714Z,98379.22
2022-10-19T17:49:11.179Z,98388.75
2022-10-19T17:51:16.089Z,98393.91
2022-10-19T17:53:21.482Z,98390.56
2022-10-19T17:55:23.732Z,98390.56
2022-10-19T17:57:29.135Z,98389.75
2022-10-19T17:59:46.715Z,98394.13
2022-10-19T18:01:53.958Z,98395.84
2022-10-19T18:03:56.503Z,98401.97
2022-10-19T18:05:59.935Z,98397.63
2022-10-19T18:08:02.088Z,98395.88
2022-10-19T18:10:04.650Z,98390.72
2022-10-19T18:12:07.507Z,98403.69
2022-10-19T18:14:12.868Z,98401.94
2022-10-19T18:16:16.856Z,98400.16
2022-10-19T18:18:23.382Z,98399.28
2022-10-19T18:20:26.205Z,98404.47
2022-10-19T18:22:28.288Z,98397.50
2022-10-19T18:24:33.020Z,98402.66
2022-10-19T18:26:35.958Z,98405.38
2022-10-19T18:28:43.289Z,98402.75
2022-10-19T18:30:45.813Z,98401.94
2022-10-19T18:32:49.952Z,98384.72
2022-10-19T18:34:52.168Z,98407.09
2022-10-19T18:36:57.568Z,98407.09
2022-10-19T18:39:04.767Z,98402.03
2022-10-19T18:43:17.097Z,98406.28
2022-10-19T18:45:21.732Z,98407.16
2022-10-19T18:47:26.912Z,98402.91
2022-10-19T18:49:38.924Z,98406.28
2022-10-19T18:51:41.196Z,98408.03
2022-10-19T18:53:44.598Z,98403.72
2022-10-19T18:55:57.310Z,98413.22
2022-10-19T18:58:02.296Z,98406.44
2022-10-19T19:00:05.211Z,98395.28
2022-10-19T19:02:22.123Z,98408.25
2022-10-19T19:04:25.323Z,98395.13
2022-10-19T19:06:29.887Z,98410.59
2022-10-19T19:08:32.277Z,98396.81
2022-10-19T19:10:34.613Z,98408.97
2022-10-19T19:12:36.719Z,98410.72
2022-10-19T19:14:39.101Z,98418.66
2022-10-19T19:16:42.970Z,98415.16
2022-10-19T19:18:45.289Z,98417.72
2022-10-19T19:20:47.447Z,98417.81
2022-10-19T19:22:49.755Z,98410.91
2022-10-19T19:24:54.382Z,98412.63
2022-10-19T19:26:59.963Z,98405.72
2022-10-19T19:29:02.714Z,98410.91
2022-10-19T19:31:06.382Z,98418.75
2022-10-19T19:33:09.078Z,98416.94
2022-10-19T19:35:11.552Z,98429.09
2022-10-19T19:37:16.592Z,98428.25
2022-10-19T19:39:21.171Z,98428.25
2022-10-19T19:41:23.376Z,98432.72
2022-10-19T19:43:25.769Z,98436.06
2022-10-19T19:45:27.784Z,98433.44
2022-10-19T19:47:30.232Z,98438.59
2022-10-19T19:49:32.680Z,98441.25
2022-10-19T19:51:35.361Z,98445.53
2022-10-19T19:53:38.344Z,98446.41
2022-10-19T19:55:40.492Z,98454.16
2022-10-19T19:57:42.587Z,98461.06
2022-10-19T19:59:44.645Z,98465.47
2022-10-19T20:01:46.979Z,98470.63
2022-10-19T20:03:49.038Z,98476.75
2022-10-19T20:05:51.221Z,98473.28
2022-10-19T20:07:56.585Z,98471.47
2022-10-19T20:09:58.771Z,98476.63
2022-10-19T20:12:00.920Z,98474.81
2022-10-19T20:14:03.041Z,98481.75
2022-10-19T20:16:13.957Z,98490.44
2022-10-19T20:18:16.062Z,98486.06
2022-10-19T20:20:18.325Z,98486.13
2022-10-19T20:24:25.943Z,98489.66
2022-10-19T20:26:28.907Z,98482.72
2022-10-19T20:28:33.969Z,98491.41
2022-10-19T20:30:36.011Z,98481.84
2022-10-19T20:32:38.853Z,98487.94
2022-10-19T20:34:41.093Z,98488.81
2022-10-19T20:36:43.468Z,98485.38
2022-10-19T20:38:48.371Z,98494.84
2022-10-19T20:40:50.599Z,98494.94
2022-10-19T20:42:53.432Z,98491.59
2022-10-19T20:44:56.433Z,98490.69
2022-10-19T20:46:58.758Z,98493.34
2022-10-19T20:49:01.759Z,98489.84
2022-10-19T20:51:16.452Z,98491.63
2022-10-19T20:53:18.961Z,98457.13
2022-10-19T20:55:23.055Z,98492.47
2022-10-19T20:57:28.442Z,98487.25
2022-10-19T20:59:33.028Z,98498.63
2022-10-19T21:01:38.040Z,98487.38
2022-10-19T21:03:45.188Z,98499.53
2022-10-19T21:05:47.740Z,98491.72
2022-10-19T21:07:53.304Z,98512.63
2022-10-19T21:09:55.815Z,98508.25
2022-10-19T21:12:03.407Z,98494.47
2022-10-19T21:14:28.773Z,98501.44
2022-10-19T21:16:33.809Z,98513.53
2022-10-19T21:18:36.061Z,98505.72
2022-10-19T21:20:38.223Z,98508.38
2022-10-19T21:22:41.618Z,98521.44
2022-10-19T21:24:43.880Z,98509.25
2022-10-19T21:26:46.631Z,98510.97
2022-10-19T21:28:50.881Z,98504.94
2022-10-19T21:30:52.871Z,98524.81
2022-10-19T21:32:54.923Z,98512.75
2022-10-19T21:34:56.927Z,98523.94
2022-10-19T21:36:59.300Z,98511.00
2022-10-19T21:39:01.801Z,98523.97
2022-10-19T21:41:09.321Z,98510.97
2022-10-19T21:43:11.543Z,98517.00
2022-10-19T21:45:30.591Z,98517.88
2022-10-19T21:47:33.439Z,98522.16
2022-10-19T21:49:36.191Z,98529.06
2022-10-19T21:51:38.046Z,98529.19
2022-10-19T21:53:40.162Z,98526.59
2022-10-19T21:55:42.500Z,98530.97
2022-10-19T21:57:45.989Z,98530.97
2022-10-19T21:59:47.959Z,98531.78
2022-10-19T22:01:50.328Z,98537.81
2022-10-19T22:03:56.315Z,98543.91
2022-10-19T22:05:58.631Z,98542.16
2022-10-19T22:08:00.753Z,98541.38
2022-10-19T22:10:03.553Z,98543.03
2022-10-19T22:12:05.708Z,98538.78
2022-10-19T22:14:07.953Z,98547.38
2022-10-19T22:16:14.189Z,98553.47
2022-10-19T22:18:18.802Z,98558.66
2022-10-19T22:20:20.890Z,98564.75
2022-10-19T22:22:25.304Z,98561.31
2022-10-19T22:24:30.064Z,98559.59
2022-10-19T22:26:47.408Z,98565.63
2022-10-19T22:28:49.687Z,98557.78
2022-10-19T22:30:58.975Z,98569.06
2022-10-19T22:33:01.032Z,98557.00
2022-10-19T22:35:04.425Z,98572.63
2022-10-19T22:37:06.430Z,98565.66
2022-10-19T22:39:08.958Z,98573.44
2022-10-19T22:41:11.023Z,98570.84
2022-10-19T22:43:13.249Z,98569.13
2022-10-19T22:45:15.259Z,98576.03
2022-10-19T22:47:17.295Z,98576.03
2022-10-19T22:49:19.521Z,98580.44
2022-10-19T22:51:21.632Z,98579.56
2022-10-19T22:53:24.551Z,98564.03
2022-10-19T22:55:26.644Z,98577.00
2022-10-19T22:57:28.634Z,98570.06
2022-10-19T22:59:30.793Z,98564.88
2022-10-19T23:01:33.189Z,98572.69
2022-10-19T23:03:35.702Z,98575.28
2022-10-19T23:05:37.900Z,98583.09
2022-10-19T23:07:40.071Z,98584.88
2022-10-19T23:09:42.204Z,98584.84
2022-10-19T23:11:44.436Z,98576.16
2022-10-19T23:13:46.469Z,98581.31
2022-10-19T23:15:48.603Z,98586.53
2022-10-19T23:17:50.703Z,98585.63
2022-10-19T23:19:52.840Z,98586.53
2022-10-19T23:21:55.087Z,98593.50
2022-10-19T23:23:57.116Z,98600.44
2022-10-19T23:26:01.042Z,98599.59
2022-10-19T23:28:03.242Z,98603.06
2022-10-19T23:30:05.693Z,98603.91
2022-10-19T23:32:07.913Z,98607.41
2022-10-19T23:34:09.954Z,98609.13
2022-10-19T23:36:18.040Z,98617.72
2022-10-19T23:38:20.062Z,98628.19
2022-10-19T23:40:22.140Z,98624.75
2022-10-19T23:42:27.347Z,98619.59
2022-10-19T23:44:29.407Z,98619.63
2022-10-19T23:46:31.482Z,98634.34
2022-10-19T23:48:34.679Z,98630.88
2022-10-19T23:50:36.887Z,98631.72
2022-10-19T23:52:38.945Z,98618.75
2022-10-19T23:54:43.234Z,98626.50
2022-10-19T23:56:45.515Z,98629.94
2022-10-19T23:58:48.344Z,98637.75
